createdAt,value
2018-07-13T00:02:04.864Z,43.63
2018-07-13T00:04:34.032Z,43.62
2018-07-13T00:07:03.140Z,43.66
2018-07-13T00:09:32.228Z,43.62
2018-07-13T00:12:01.326Z,43.78
2018-07-13T00:14:30.416Z,43.48
2018-07-13T00:16:59.680Z,43.54
2018-07-13T00:19:28.836Z,43.59
2018-07-13T00:21:57.906Z,43.94
2018-07-13T00:24:27.014Z,43.60
2018-07-13T00:26:56.108Z,43.61
2018-07-13T00:29:25.313Z,43.37
2018-07-13T00:31:54.628Z,43.69
2018-07-13T00:34:23.725Z,43.46
2018-07-13T00:36:52.912Z,43.48
2018-07-13T00:39:21.991Z,43.74
2018-07-13T00:41:51.120Z,43.54
2018-07-13T00:44:20.241Z,43.67
2018-07-13T00:46:49.380Z,43.26
2018-07-13T00:49:18.480Z,43.41
2018-07-13T00:51:47.573Z,43.50
2018-07-13T00:54:16.680Z,43.67
2018-07-13T00:56:45.790Z,43.94
2018-07-13T00:59:14.872Z,43.70
2018-07-13T01:01:44.056Z,43.55
2018-07-13T01:04:13.158Z,43.81
2018-07-13T01:06:42.250Z,43.69
2018-07-13T01:09:11.338Z,43.91
2018-07-13T01:11:40.440Z,43.77
2018-07-13T01:14:15.202Z,43.73
2018-07-13T01:16:44.292Z,44.06
2018-07-13T01:19:13.662Z,44.03
2018-07-13T01:21:42.871Z,43.86
2018-07-13T01:24:11.961Z,43.91
2018-07-13T01:26:41.084Z,43.76
2018-07-13T01:29:10.257Z,44.01
2018-07-13T01:31:39.344Z,44.08
2018-07-13T01:34:08.453Z,44.04
2018-07-13T01:36:37.652Z,43.85
2018-07-13T01:39:09.476Z,43.50
2018-07-13T01:41:38.560Z,43.82
2018-07-13T01:44:07.648Z,43.69
2018-07-13T01:46:36.712Z,44.00
2018-07-13T01:49:05.907Z,43.60
2018-07-13T01:51:35.118Z,43.89
2018-07-13T01:54:04.278Z,43.90
2018-07-13T01:56:33.378Z,44.10
2018-07-13T01:59:02.468Z,44.08
2018-07-13T02:01:31.588Z,43.65
2018-07-13T02:04:00.696Z,43.94
2018-07-13T02:06:29.860Z,44.10
2018-07-13T02:08:58.955Z,43.86
2018-07-13T02:11:28.056Z,44.02
2018-07-13T02:13:57.144Z,43.73
2018-07-13T02:16:26.256Z,43.89
2018-07-13T02:18:55.348Z,44.12
2018-07-13T02:21:24.435Z,44.20
2018-07-13T02:23:53.520Z,43.94
2018-07-13T02:26:22.612Z,43.64
2018-07-13T02:28:52.048Z,43.67
2018-07-13T02:31:21.233Z,43.63
2018-07-13T02:33:50.364Z,43.65
2018-07-13T02:36:19.610Z,43.73
2018-07-13T02:38:48.720Z,44.03
2018-07-13T02:41:17.840Z,44.02
2018-07-13T02:43:47.004Z,44.00
2018-07-13T02:46:16.100Z,44.10
2018-07-13T02:48:45.367Z,44.02
2018-07-13T02:51:15.534Z,43.93
2018-07-13T02:53:44.656Z,44.08
2018-07-13T02:56:13.822Z,43.90
2018-07-13T02:58:42.913Z,44.09
2018-07-13T03:01:12.117Z,43.87
2018-07-13T03:03:41.213Z,44.15
2018-07-13T03:06:10.330Z,43.78
2018-07-13T03:08:39.408Z,43.83
2018-07-13T03:11:08.509Z,43.68
2018-07-13T03:13:37.589Z,43.69
2018-07-13T03:16:06.701Z,43.67
2018-07-13T03:18:35.773Z,43.89
2018-07-13T03:21:04.863Z,43.90
2018-07-13T03:23:34.027Z,44.05
2018-07-13T03:26:03.180Z,43.59
2018-07-13T03:28:32.451Z,44.08
2018-07-13T03:31:01.569Z,43.85
2018-07-13T03:33:30.686Z,43.87
2018-07-13T03:35:59.763Z,43.87
2018-07-13T03:38:28.946Z,44.06
2018-07-13T03:40:58.175Z,44.02
2018-07-13T03:43:27.259Z,43.74
2018-07-13T03:45:56.359Z,43.72
2018-07-13T03:48:25.540Z,43.61
2018-07-13T03:50:54.761Z,43.78
2018-07-13T03:53:23.851Z,43.73
2018-07-13T03:55:53.031Z,43.60
2018-07-13T03:58:22.141Z,43.61
2018-07-13T04:00:51.227Z,43.72
2018-07-13T04:03:20.345Z,43.92
2018-07-13T04:05:49.445Z,43.78
2018-07-13T04:08:18.540Z,43.64
2018-07-13T04:10:47.633Z,43.87
2018-07-13T04:13:16.707Z,43.85
2018-07-13T04:15:45.821Z,44.14
2018-07-13T04:18:18.568Z,43.96
2018-07-13T04:20:47.943Z,43.65
2018-07-13T04:23:17.089Z,43.83
2018-07-13T04:25:46.179Z,44.19
2018-07-13T04:28:15.871Z,43.98
2018-07-13T04:30:45.325Z,43.96
2018-07-13T04:33:14.653Z,44.17
2018-07-13T04:35:43.850Z,44.03
2018-07-13T04:38:13.099Z,43.94
2018-07-13T04:40:42.193Z,44.13
2018-07-13T04:43:11.492Z,43.95
2018-07-13T04:45:40.574Z,43.98
2018-07-13T04:48:09.792Z,43.84
2018-07-13T04:50:38.866Z,43.91
2018-07-13T04:53:07.947Z,43.89
2018-07-13T04:55:37.088Z,44.04
2018-07-13T04:58:06.171Z,43.95
2018-07-13T05:00:35.365Z,43.76
2018-07-13T05:03:04.573Z,44.13
2018-07-13T05:05:33.699Z,44.15
2018-07-13T05:08:02.877Z,44.50
2018-07-13T05:10:31.944Z,44.91
2018-07-13T05:13:01.050Z,45.33
2018-07-13T05:15:30.139Z,45.41
2018-07-13T05:17:59.240Z,45.81
2018-07-13T05:20:28.340Z,46.32
2018-07-13T05:22:57.408Z,46.32
2018-07-13T05:25:26.520Z,46.15
2018-07-13T05:27:56.016Z,46.34
2018-07-13T05:30:25.134Z,46.21
2018-07-13T05:32:54.351Z,46.20
2018-07-13T05:35:23.732Z,46.32
2018-07-13T05:37:52.825Z,46.27
2018-07-13T05:40:21.921Z,45.84
2018-07-13T05:42:51.029Z,45.85
2018-07-13T05:45:20.137Z,46.00
2018-07-13T05:47:49.599Z,45.97
2018-07-13T05:50:18.711Z,45.95
2018-07-13T05:52:47.795Z,45.97
2018-07-13T05:55:16.916Z,45.87
2018-07-13T05:57:46.052Z,45.79
2018-07-13T06:00:15.223Z,45.55
2018-07-13T06:02:44.312Z,45.26
2018-07-13T06:05:13.903Z,45.57
2018-07-13T06:07:42.992Z,45.54
2018-07-13T06:10:12.080Z,45.19
2018-07-13T06:12:41.292Z,45.21
2018-07-13T06:15:10.703Z,45.34
2018-07-13T06:17:39.889Z,45.39
2018-07-13T06:20:10.392Z,45.09
2018-07-13T06:22:39.832Z,45.28
2018-07-13T06:25:09.921Z,44.93
2018-07-13T06:27:39.404Z,45.06
2018-07-13T06:30:08.539Z,45.05
2018-07-13T06:32:37.848Z,45.27
2018-07-13T06:35:07.044Z,45.14
2018-07-13T06:37:36.156Z,44.94
2018-07-13T06:40:05.368Z,44.57
2018-07-13T06:42:34.530Z,45.07
2018-07-13T06:45:03.658Z,44.63
2018-07-13T06:47:32.825Z,44.61
2018-07-13T06:50:02.073Z,44.48
2018-07-13T06:52:31.262Z,44.42
2018-07-13T06:55:00.435Z,44.29
2018-07-13T06:57:40.835Z,44.47
2018-07-13T07:01:17.479Z,44.21
2018-07-13T07:04:53.181Z,44.12
2018-07-13T07:07:24.036Z,44.12
2018-07-13T07:09:55.496Z,44.36
2018-07-13T07:13:29.447Z,44.39
2018-07-13T07:15:58.980Z,44.12
2018-07-13T07:18:28.144Z,44.33
2018-07-13T07:20:57.962Z,44.05
2018-07-13T07:23:28.045Z,43.98
2018-07-13T07:25:58.133Z,43.70
2018-07-13T07:28:27.559Z,43.78
2018-07-13T07:30:57.560Z,43.56
2018-07-13T07:33:26.691Z,44.17
2018-07-13T07:35:55.807Z,44.03
2018-07-13T07:38:25.193Z,43.95
2018-07-13T07:40:54.511Z,44.08
2018-07-13T07:43:23.689Z,43.84
2018-07-13T07:45:52.782Z,43.48
2018-07-13T07:48:21.902Z,43.49
2018-07-13T07:50:51.090Z,42.65
2018-07-13T07:53:20.179Z,43.07
2018-07-13T07:55:49.292Z,42.67
2018-07-13T07:58:18.388Z,42.70
2018-07-13T08:00:47.481Z,42.88
2018-07-13T08:03:16.665Z,42.55
2018-07-13T08:05:45.756Z,42.31
2018-07-13T08:08:14.855Z,41.96
2018-07-13T08:10:43.954Z,42.76
2018-07-13T08:13:13.167Z,41.88
2018-07-13T08:15:42.236Z,41.69
2018-07-13T08:18:11.344Z,41.53
2018-07-13T08:20:44.728Z,41.12
2018-07-13T08:23:14.322Z,41.44
2018-07-13T08:25:48.403Z,40.96
2018-07-13T08:28:19.704Z,40.78
2018-07-13T08:30:55.200Z,40.25
2018-07-13T08:33:24.300Z,40.04
2018-07-13T08:35:53.479Z,40.42
2018-07-13T08:38:22.865Z,40.40
2018-07-13T08:40:52.075Z,39.57
2018-07-13T08:43:21.247Z,40.25
2018-07-13T08:45:50.487Z,39.83
2018-07-13T08:48:19.732Z,39.85
2018-07-13T08:50:48.872Z,40.01
2018-07-13T08:53:18.043Z,39.63
2018-07-13T08:55:47.123Z,38.42
2018-07-13T08:58:16.524Z,38.59
2018-07-13T09:00:45.637Z,38.97
2018-07-13T09:03:14.840Z,39.50
2018-07-13T09:05:43.971Z,39.90
2018-07-13T09:08:13.311Z,39.67
2018-07-13T09:10:42.772Z,40.20
2018-07-13T09:13:12.012Z,40.23
2018-07-13T09:15:41.344Z,40.09
2018-07-13T09:18:10.598Z,40.14
2018-07-13T09:20:39.840Z,39.20
2018-07-13T09:23:08.920Z,40.32
2018-07-13T09:25:37.995Z,39.98
2018-07-13T09:28:07.122Z,39.42
2018-07-13T09:30:36.344Z,39.90
2018-07-13T09:33:05.616Z,39.58
2018-07-13T09:35:34.810Z,39.98
2018-07-13T09:38:04.060Z,40.51
2018-07-13T09:40:33.730Z,40.36
2018-07-13T09:43:02.914Z,39.26
2018-07-13T09:45:32.028Z,38.05
2018-07-13T09:48:01.122Z,40.51
2018-07-13T09:50:30.204Z,39.99
2018-07-13T09:52:59.409Z,39.99
2018-07-13T09:55:28.508Z,39.73
2018-07-13T09:57:57.596Z,39.67
2018-07-13T10:00:30.883Z,39.79
2018-07-13T10:03:00.384Z,39.38
2018-07-13T10:05:29.531Z,39.58
2018-07-13T10:07:58.806Z,38.47
2018-07-13T10:10:27.894Z,38.55
2018-07-13T10:12:57.012Z,38.55
2018-07-13T10:15:26.227Z,38.38
2018-07-13T10:17:55.353Z,38.78
2018-07-13T10:20:24.492Z,38.88
2018-07-13T10:22:53.774Z,38.15
2018-07-13T10:25:23.688Z,38.55
2018-07-13T10:27:53.117Z,39.17
2018-07-13T10:30:22.597Z,39.55
2018-07-13T10:32:51.708Z,39.76
2018-07-13T10:35:21.116Z,39.43
2018-07-13T10:37:50.392Z,39.36
2018-07-13T10:40:19.488Z,39.58
2018-07-13T10:42:48.653Z,39.74
2018-07-13T10:45:17.797Z,39.37
2018-07-13T10:47:47.175Z,39.43
2018-07-13T10:50:16.544Z,39.80
2018-07-13T10:52:45.713Z,39.83
2018-07-13T10:55:14.875Z,39.55
2018-07-13T10:57:43.978Z,39.36
2018-07-13T11:00:13.076Z,38.95
2018-07-13T11:02:42.286Z,39.11
2018-07-13T11:05:11.626Z,39.19
2018-07-13T11:07:40.888Z,39.09
2018-07-13T11:10:10.095Z,37.53
2018-07-13T11:12:39.263Z,38.41
2018-07-13T11:15:08.370Z,37.35
2018-07-13T11:17:37.526Z,38.62
2018-07-13T11:20:06.653Z,37.59
2018-07-13T11:22:35.731Z,37.74
2018-07-13T11:25:04.864Z,37.68
2018-07-13T11:27:34.193Z,38.13
2018-07-13T11:30:03.385Z,38.19
2018-07-13T11:32:38.299Z,38.55
2018-07-13T11:35:07.444Z,37.97
2018-07-13T11:37:36.570Z,38.56
2018-07-13T11:40:06.224Z,38.53
2018-07-13T11:42:35.319Z,38.71
2018-07-13T11:45:04.402Z,38.80
2018-07-13T11:47:33.533Z,38.44
2018-07-13T11:50:02.676Z,38.37
2018-07-13T11:52:31.858Z,38.63
2018-07-13T11:55:00.959Z,38.15
2018-07-13T11:57:30.065Z,37.86
2018-07-13T11:59:59.168Z,37.64
2018-07-13T12:02:28.260Z,38.57
2018-07-13T12:04:57.508Z,37.94
2018-07-13T12:07:26.641Z,38.14
2018-07-13T12:09:55.886Z,38.10
2018-07-13T12:12:25.060Z,38.79
2018-07-13T12:14:54.147Z,37.89
2018-07-13T12:17:23.349Z,38.13
2018-07-13T12:19:52.656Z,37.77
2018-07-13T12:22:21.941Z,38.16
2018-07-13T12:24:51.172Z,38.36
2018-07-13T12:27:20.249Z,38.04
2018-07-13T12:29:49.323Z,39.12
2018-07-13T12:32:18.425Z,38.73
2018-07-13T12:34:47.511Z,39.15
2018-07-13T12:37:16.628Z,40.64
2018-07-13T12:39:45.818Z,40.77
2018-07-13T12:42:15.057Z,40.42
2018-07-13T12:44:44.180Z,40.67
2018-07-13T12:47:13.312Z,41.90
2018-07-13T12:49:42.433Z,41.67
2018-07-13T12:52:11.796Z,42.12
2018-07-13T12:54:40.947Z,42.30
2018-07-13T12:57:10.183Z,42.79
2018-07-13T12:59:39.292Z,42.30
2018-07-13T13:02:08.377Z,42.61
2018-07-13T13:04:37.437Z,42.22
2018-07-13T13:07:06.551Z,42.56
2018-07-13T13:09:35.673Z,42.47
2018-07-13T13:12:04.765Z,42.19
2018-07-13T13:14:33.847Z,42.25
2018-07-13T13:17:02.948Z,42.61
2018-07-13T13:19:32.649Z,42.73
2018-07-13T13:22:01.932Z,42.83
2018-07-13T13:24:31.117Z,42.84
2018-07-13T13:27:00.248Z,42.63
2018-07-13T13:29:29.677Z,42.21
2018-07-13T13:31:58.781Z,42.31
2018-07-13T13:34:27.855Z,41.91
2018-07-13T13:36:56.964Z,42.03
2018-07-13T13:39:26.152Z,41.83
2018-07-13T13:41:55.256Z,41.85
2018-07-13T13:44:24.600Z,41.60
2018-07-13T13:46:53.735Z,41.83
2018-07-13T13:49:22.836Z,42.11
2018-07-13T13:51:51.928Z,42.63
2018-07-13T13:54:21.020Z,42.83
2018-07-13T13:56:50.138Z,43.14
2018-07-13T13:59:19.219Z,43.16
2018-07-13T14:01:48.344Z,42.43
2018-07-13T14:04:17.631Z,42.59
2018-07-13T14:06:46.718Z,42.36
2018-07-13T14:09:15.863Z,41.55
2018-07-13T14:11:45.114Z,42.00
2018-07-13T14:14:14.223Z,41.68
2018-07-13T14:16:43.300Z,41.96
2018-07-13T14:19:12.384Z,41.68
2018-07-13T14:21:41.505Z,41.52
2018-07-13T14:24:11.906Z,41.81
2018-07-13T14:26:41.041Z,41.45
2018-07-13T14:29:10.235Z,41.93
2018-07-13T14:31:39.345Z,41.57
2018-07-13T14:34:08.823Z,41.30
2018-07-13T14:36:38.190Z,41.47
2018-07-13T14:39:08.924Z,41.02
2018-07-13T14:41:38.039Z,41.01
2018-07-13T14:44:07.252Z,41.09
2018-07-13T14:46:36.339Z,41.30
2018-07-13T14:49:05.563Z,41.04
2018-07-13T14:51:34.815Z,41.15
2018-07-13T14:54:04.603Z,41.37
2018-07-13T14:56:33.921Z,41.11
2018-07-13T14:59:03.062Z,41.37
2018-07-13T15:01:32.167Z,40.99
2018-07-13T15:04:01.419Z,41.20
2018-07-13T15:06:30.760Z,40.77
2018-07-13T15:09:00.004Z,40.70
2018-07-13T15:11:29.075Z,40.55
2018-07-13T15:13:58.169Z,40.57
2018-07-13T15:16:27.326Z,41.23
2018-07-13T15:18:56.423Z,40.53
2018-07-13T15:21:25.522Z,40.91
2018-07-13T15:23:54.612Z,40.96
2018-07-13T15:26:23.731Z,40.68
2018-07-13T15:28:52.883Z,40.92
2018-07-13T15:31:22.216Z,40.81
2018-07-13T15:33:51.308Z,40.86
2018-07-13T15:36:20.408Z,41.33
2018-07-13T15:38:49.488Z,41.31
2018-07-13T15:41:18.599Z,40.97
2018-07-13T15:43:47.683Z,41.64
2018-07-13T15:46:16.796Z,41.71
2018-07-13T15:48:45.887Z,41.82
2018-07-13T15:51:14.981Z,41.93
2018-07-13T15:53:44.087Z,41.85
2018-07-13T15:56:13.146Z,41.79
2018-07-13T15:58:42.398Z,41.69
2018-07-13T16:01:11.558Z,41.71
2018-07-13T16:03:40.695Z,41.63
2018-07-13T16:06:09.786Z,41.79
2018-07-13T16:08:39.037Z,41.67
2018-07-13T16:11:08.343Z,41.72
2018-07-13T16:13:37.473Z,41.55
2018-07-13T16:16:06.678Z,41.22
2018-07-13T16:18:36.009Z,41.56
2018-07-13T16:21:05.079Z,41.67
2018-07-13T16:23:34.444Z,41.32
2018-07-13T16:26:03.543Z,41.73
2018-07-13T16:28:32.789Z,41.82
2018-07-13T16:31:02.040Z,41.35
2018-07-13T16:33:31.117Z,41.06
2018-07-13T16:36:00.233Z,41.11
2018-07-13T16:38:29.508Z,41.03
2018-07-13T16:40:58.644Z,41.39
2018-07-13T16:43:27.741Z,40.96
2018-07-13T16:45:56.923Z,41.00
2018-07-13T16:48:26.008Z,41.07
2018-07-13T16:50:55.209Z,40.92
2018-07-13T16:53:24.463Z,40.84
2018-07-13T16:55:53.608Z,40.99
2018-07-13T16:58:22.706Z,41.23
2018-07-13T17:00:51.811Z,41.32
2018-07-13T17:03:21.049Z,41.03
2018-07-13T17:05:50.540Z,40.80
2018-07-13T17:08:19.702Z,40.77
2018-07-13T17:10:48.781Z,40.70
2018-07-13T17:13:17.852Z,40.84
2018-07-13T17:15:46.984Z,40.39
2018-07-13T17:18:16.113Z,40.54
2018-07-13T17:20:45.276Z,40.47
2018-07-13T17:23:14.502Z,40.22
2018-07-13T17:25:43.589Z,40.33
2018-07-13T17:28:12.693Z,40.42
2018-07-13T17:30:41.808Z,40.08
2018-07-13T17:33:10.968Z,40.15
2018-07-13T17:35:40.122Z,40.03
2018-07-13T17:38:09.212Z,40.04
2018-07-13T17:40:38.364Z,40.19
2018-07-13T17:43:07.528Z,39.96
2018-07-13T17:45:36.845Z,39.85
2018-07-13T17:48:05.921Z,40.37
2018-07-13T17:50:35.031Z,40.25
2018-07-13T17:53:04.128Z,40.31
2018-07-13T17:55:33.276Z,40.46
2018-07-13T17:58:02.337Z,40.22
2018-07-13T18:00:31.473Z,40.47
2018-07-13T18:03:00.946Z,40.06
2018-07-13T18:05:30.036Z,40.00
2018-07-13T18:07:59.138Z,39.97
2018-07-13T18:10:28.240Z,40.47
2018-07-13T18:12:57.444Z,40.16
2018-07-13T18:15:26.616Z,40.24
2018-07-13T18:17:55.702Z,40.32
2018-07-13T18:20:24.832Z,40.61
2018-07-13T18:22:53.927Z,40.72
2018-07-13T18:25:23.177Z,40.55
2018-07-13T18:27:52.525Z,40.70
2018-07-13T18:30:27.037Z,40.60
2018-07-13T18:32:56.129Z,41.06
2018-07-13T18:35:25.226Z,40.71
2018-07-13T18:37:54.308Z,41.12
2018-07-13T18:40:23.499Z,41.02
2018-07-13T18:42:52.575Z,41.11
2018-07-13T18:45:21.695Z,40.83
2018-07-13T18:47:53.355Z,41.04
2018-07-13T18:50:22.575Z,41.14
2018-07-13T18:52:51.621Z,41.12
2018-07-13T18:55:20.703Z,41.15
2018-07-13T18:57:49.849Z,41.38
2018-07-13T19:00:19.041Z,41.20
2018-07-13T19:02:48.151Z,41.18
2018-07-13T19:05:17.381Z,41.18
2018-07-13T19:07:46.535Z,41.25
2018-07-13T19:10:15.647Z,41.47
2018-07-13T19:12:44.744Z,41.27
2018-07-13T19:15:13.941Z,41.55
2018-07-13T19:17:43.024Z,41.49
2018-07-13T19:20:12.101Z,41.15
2018-07-13T19:22:42.950Z,41.17
2018-07-13T19:25:12.133Z,41.40
2018-07-13T19:27:41.366Z,41.35
2018-07-13T19:30:10.439Z,41.28
2018-07-13T19:32:39.515Z,41.60
2018-07-13T19:35:08.596Z,41.44
2018-07-13T19:37:37.732Z,41.43
2018-07-13T19:40:06.845Z,41.64
2018-07-13T19:42:36.037Z,41.57
2018-07-13T19:45:05.134Z,41.34
2018-07-13T19:47:34.328Z,41.65
2018-07-13T19:50:03.414Z,41.76
2018-07-13T19:52:32.512Z,41.48
2018-07-13T19:55:01.618Z,41.76
2018-07-13T19:57:30.847Z,41.37
2018-07-13T20:00:00.128Z,41.53
2018-07-13T20:02:29.402Z,41.48
2018-07-13T20:04:58.502Z,42.03
2018-07-13T20:07:27.596Z,41.56
2018-07-13T20:09:56.692Z,41.87
2018-07-13T20:12:25.783Z,41.99
2018-07-13T20:14:54.888Z,41.75
2018-07-13T20:17:24.011Z,41.97
2018-07-13T20:19:53.174Z,42.12
2018-07-13T20:22:22.268Z,41.97
2018-07-13T20:24:51.344Z,41.96
2018-07-13T20:27:20.456Z,41.79
2018-07-13T20:29:49.713Z,41.97
2018-07-13T20:32:18.796Z,42.23
2018-07-13T20:34:47.936Z,42.09
2018-07-13T20:37:17.056Z,41.95
2018-07-13T20:39:46.148Z,41.98
2018-07-13T20:42:15.263Z,42.49
2018-07-13T20:44:44.344Z,42.10
2018-07-13T20:47:13.474Z,41.89
2018-07-13T20:49:42.548Z,42.08
2018-07-13T20:52:11.722Z,41.94
2018-07-13T20:54:40.838Z,42.31
2018-07-13T20:57:09.928Z,42.32
2018-07-13T20:59:39.072Z,42.30
2018-07-13T21:02:08.512Z,42.39
2018-07-13T21:04:37.593Z,41.98
2018-07-13T21:07:07.378Z,42.04
2018-07-13T21:09:36.449Z,42.32
2018-07-13T21:12:05.792Z,42.35
2018-07-13T21:14:34.858Z,42.19
2018-07-13T21:17:04.030Z,42.27
2018-07-13T21:19:33.179Z,42.52
2018-07-13T21:22:02.560Z,42.59
2018-07-13T21:24:31.641Z,42.24
2018-07-13T21:27:00.893Z,42.75
2018-07-13T21:29:30.116Z,42.47
2018-07-13T21:31:59.200Z,42.45
2018-07-13T21:34:28.300Z,42.51
2018-07-13T21:36:57.406Z,42.66
2018-07-13T21:39:26.477Z,42.27
2018-07-13T21:41:55.600Z,42.34
2018-07-13T21:44:24.796Z,42.52
2018-07-13T21:46:53.881Z,42.43
2018-07-13T21:49:22.972Z,42.90
2018-07-13T21:51:52.171Z,42.56
2018-07-13T21:54:21.300Z,42.53
2018-07-13T21:56:50.735Z,42.96
2018-07-13T21:59:19.861Z,42.49
2018-07-13T22:01:49.014Z,42.54
2018-07-13T22:04:18.256Z,43.01
2018-07-13T22:06:47.480Z,42.87
2018-07-13T22:09:16.552Z,42.91
2018-07-13T22:11:45.649Z,42.84
2018-07-13T22:14:14.740Z,43.28
2018-07-13T22:16:43.840Z,43.30
2018-07-13T22:19:12.972Z,43.04
2018-07-13T22:21:42.148Z,43.25
2018-07-13T22:24:11.340Z,43.31
2018-07-13T22:26:40.526Z,43.46
2018-07-13T22:29:09.752Z,43.36
2018-07-13T22:31:38.848Z,43.85
2018-07-13T22:34:07.926Z,43.66
2018-07-13T22:36:37.037Z,43.72
2018-07-13T22:39:06.892Z,43.38
2018-07-13T22:41:36.192Z,43.47
2018-07-13T22:44:05.312Z,43.79
2018-07-13T22:46:34.454Z,43.89
2018-07-13T22:49:03.556Z,43.33
2018-07-13T22:51:32.812Z,43.81
2018-07-13T22:54:01.900Z,43.25
2018-07-13T22:56:31.006Z,43.66
2018-07-13T22:59:00.115Z,43.58
2018-07-13T23:01:29.176Z,43.57
2018-07-13T23:03:58.295Z,43.60
2018-07-13T23:06:27.411Z,43.59
2018-07-13T23:08:56.512Z,43.50
2018-07-13T23:11:25.587Z,43.63
2018-07-13T23:13:54.677Z,43.85
2018-07-13T23:16:23.743Z,43.80
2018-07-13T23:18:52.857Z,43.48
2018-07-13T23:21:22.448Z,43.57
2018-07-13T23:23:51.628Z,43.48
2018-07-13T23:26:20.844Z,43.76
2018-07-13T23:28:49.970Z,43.69
2018-07-13T23:31:19.084Z,43.47
2018-07-13T23:33:48.162Z,43.40
2018-07-13T23:36:17.353Z,43.57
2018-07-13T23:38:46.567Z,43.40
2018-07-13T23:41:15.628Z,43.51
2018-07-13T23:43:44.740Z,43.67
2018-07-13T23:46:13.826Z,43.58
2018-07-13T23:48:42.926Z,43.25
2018-07-13T23:51:12.056Z,43.31
2018-07-13T23:53:41.256Z,43.16
2018-07-13T23:56:10.332Z,43.23
2018-07-13T23:58:39.456Z,43.54
